sensor_id;sensor_type;location;lat;lon;timestamp;pressure;altitude;pressure_sealevel;temperature
66372;BMP180;53168;51.146;17.120;2022-10-16T00:01:33;100159.40;;;14.10
66372;BMP180;53168;51.146;17.120;2022-10-16T00:04:06;100161.60;;;14.10
66372;BMP180;53168;51.146;17.120;2022-10-16T00:06:37;100163.60;;;14.10
66372;BMP180;53168;51.146;17.120;2022-10-16T00:09:09;100160.00;;;14.10
66372;BMP180;53168;51.146;17.120;2022-10-16T00:11:41;100171.00;;;14.10
66372;BMP180;53168;51.146;17.120;2022-10-16T00:14:15;100172.80;;;14.16
66372;BMP180;53168;51.146;17.120;2022-10-16T00:16:47;100171.60;;;14.20
66372;BMP180;53168;51.146;17.120;2022-10-16T00:19:20;100166.20;;;14.30
66372;BMP180;53168;51.146;17.120;2022-10-16T00:21:52;100165.60;;;14.40
66372;BMP180;53168;51.146;17.120;2022-10-16T00:24:24;100167.60;;;14.50
66372;BMP180;53168;51.146;17.120;2022-10-16T00:26:55;100171.20;;;14.50
66372;BMP180;53168;51.146;17.120;2022-10-16T00:29:28;100170.80;;;14.40
66372;BMP180;53168;51.146;17.120;2022-10-16T00:32:00;100166.00;;;14.28
66372;BMP180;53168;51.146;17.120;2022-10-16T00:34:32;100164.00;;;14.20
66372;BMP180;53168;51.146;17.120;2022-10-16T00:37:04;100168.40;;;14.20
66372;BMP180;53168;51.146;17.120;2022-10-16T00:39:37;100168.60;;;14.30
66372;BMP180;53168;51.146;17.120;2022-10-16T00:42:11;100166.00;;;14.30
66372;BMP180;53168;51.146;17.120;2022-10-16T00:44:49;100170.40;;;14.40
66372;BMP180;53168;51.146;17.120;2022-10-16T00:47:26;100174.00;;;14.50
66372;BMP180;53168;51.146;17.120;2022-10-16T00:50:02;100166.40;;;14.40
66372;BMP180;53168;51.146;17.120;2022-10-16T00:52:36;100166.80;;;14.30
66372;BMP180;53168;51.146;17.120;2022-10-16T00:55:09;100163.40;;;14.28
66372;BMP180;53168;51.146;17.120;2022-10-16T00:57:42;100164.20;;;14.20
66372;BMP180;53168;51.146;17.120;2022-10-16T01:00:19;100166.20;;;14.20
66372;BMP180;53168;51.146;17.120;2022-10-16T01:02:55;100161.20;;;14.20
66372;BMP180;53168;51.146;17.120;2022-10-16T01:05:33;100159.20;;;14.20
66372;BMP180;53168;51.146;17.120;2022-10-16T01:08:11;100164.80;;;14.20
66372;BMP180;53168;51.146;17.120;2022-10-16T01:10:51;100165.60;;;14.20
66372;BMP180;53168;51.146;17.120;2022-10-16T01:13:30;100164.00;;;14.10
66372;BMP180;53168;51.146;17.120;2022-10-16T01:16:07;100170.00;;;14.18
66372;BMP180;53168;51.146;17.120;2022-10-16T01:18:47;100166.20;;;14.26
66372;BMP180;53168;51.146;17.120;2022-10-16T01:21:25;100163.60;;;14.38
66372;BMP180;53168;51.146;17.120;2022-10-16T01:24:06;100160.60;;;14.40
66372;BMP180;53168;51.146;17.120;2022-10-16T01:26:58;100160.40;;;14.40
66372;BMP180;53168;51.146;17.120;2022-10-16T01:29:36;100168.80;;;14.40
66372;BMP180;53168;51.146;17.120;2022-10-16T01:32:17;100177.40;;;14.50
66372;BMP180;53168;51.146;17.120;2022-10-16T01:34:52;100182.80;;;14.60
66372;BMP180;53168;51.146;17.120;2022-10-16T01:37:32;100183.80;;;14.56
66372;BMP180;53168;51.146;17.120;2022-10-16T01:40:09;100173.40;;;14.50
66372;BMP180;53168;51.146;17.120;2022-10-16T01:42:44;100171.60;;;14.40
66372;BMP180;53168;51.146;17.120;2022-10-16T01:45:20;100165.00;;;14.30
66372;BMP180;53168;51.146;17.120;2022-10-16T01:47:53;100158.40;;;14.30
66372;BMP180;53168;51.146;17.120;2022-10-16T01:50:25;100161.20;;;14.28
66372;BMP180;53168;51.146;17.120;2022-10-16T01:52:58;100170.20;;;14.24
66372;BMP180;53168;51.146;17.120;2022-10-16T01:55:32;100167.60;;;14.28
66372;BMP180;53168;51.146;17.120;2022-10-16T01:58:07;100169.80;;;14.30
66372;BMP180;53168;51.146;17.120;2022-10-16T05:54:43;100291.40;;;15.50
66372;BMP180;53168;51.146;17.120;2022-10-16T05:57:11;100296.40;;;15.50
66372;BMP180;53168;51.146;17.120;2022-10-16T05:59:39;100293.80;;;15.46
66372;BMP180;53168;51.146;17.120;2022-10-16T06:02:11;100293.20;;;15.40
66372;BMP180;53168;51.146;17.120;2022-10-16T06:04:42;100300.00;;;15.50
66372;BMP180;53168;51.146;17.120;2022-10-16T06:07:11;100310.60;;;15.50
66372;BMP180;53168;51.146;17.120;2022-10-16T06:09:39;100319.80;;;15.48
66372;BMP180;53168;51.146;17.120;2022-10-16T06:12:07;100324.40;;;15.38
66372;BMP180;53168;51.146;17.120;2022-10-16T06:14:36;100318.60;;;15.30
66372;BMP180;53168;51.146;17.120;2022-10-16T06:17:05;100319.20;;;15.28
66372;BMP180;53168;51.146;17.120;2022-10-16T06:19:33;100320.20;;;15.24
66372;BMP180;53168;51.146;17.120;2022-10-16T06:22:02;100322.60;;;15.30
66372;BMP180;53168;51.146;17.120;2022-10-16T06:24:32;100324.60;;;15.30
66372;BMP180;53168;51.146;17.120;2022-10-16T06:27:00;100325.00;;;15.40
66372;BMP180;53168;51.146;17.120;2022-10-16T06:29:29;100336.00;;;15.60
66372;BMP180;53168;51.146;17.120;2022-10-16T06:31:58;100338.20;;;15.70
66372;BMP180;53168;51.146;17.120;2022-10-16T06:34:28;100336.40;;;15.78
66372;BMP180;53168;51.146;17.120;2022-10-16T06:36:56;100340.60;;;15.72
66372;BMP180;53168;51.146;17.120;2022-10-16T06:39:25;100341.60;;;15.80
66372;BMP180;53168;51.146;17.120;2022-10-16T06:41:53;100342.80;;;15.90
66372;BMP180;53168;51.146;17.120;2022-10-16T06:44:22;100351.80;;;16.10
66372;BMP180;53168;51.146;17.120;2022-10-16T06:46:50;100358.20;;;16.20
66372;BMP180;53168;51.146;17.120;2022-10-16T06:49:19;100359.60;;;16.20
66372;BMP180;53168;51.146;17.120;2022-10-16T06:51:50;100359.40;;;16.30
66372;BMP180;53168;51.146;17.120;2022-10-16T06:54:18;100361.20;;;16.40
66372;BMP180;53168;51.146;17.120;2022-10-16T06:56:46;100361.20;;;16.50
66372;BMP180;53168;51.146;17.120;2022-10-16T06:59:15;100364.20;;;16.60
66372;BMP180;53168;51.146;17.120;2022-10-16T07:01:43;100372.00;;;16.66
66372;BMP180;53168;51.146;17.120;2022-10-16T07:04:11;100374.80;;;16.70
66372;BMP180;53168;51.146;17.120;2022-10-16T07:06:40;100381.00;;;16.80
66372;BMP180;53168;51.146;17.120;2022-10-16T07:09:10;100381.00;;;16.80
66372;BMP180;53168;51.146;17.120;2022-10-16T07:11:40;100383.60;;;16.80
66372;BMP180;53168;51.146;17.120;2022-10-16T07:14:15;100392.00;;;16.90
66372;BMP180;53168;51.146;17.120;2022-10-16T07:16:44;100391.20;;;16.90
66372;BMP180;53168;51.146;17.120;2022-10-16T07:19:12;100392.60;;;16.92
66372;BMP180;53168;51.146;17.120;2022-10-16T07:21:42;100400.40;;;17.00
66372;BMP180;53168;51.146;17.120;2022-10-16T07:24:13;100403.60;;;17.00
66372;BMP180;53168;51.146;17.120;2022-10-16T07:26:43;100403.00;;;17.00
66372;BMP180;53168;51.146;17.120;2022-10-16T07:29:13;100398.00;;;17.10
66372;BMP180;53168;51.146;17.120;2022-10-16T07:31:43;100391.60;;;17.20
66372;BMP180;53168;51.146;17.120;2022-10-16T07:34:12;100398.40;;;17.28
66372;BMP180;53168;51.146;17.120;2022-10-16T07:36:41;100401.80;;;17.30
66372;BMP180;53168;51.146;17.120;2022-10-16T07:39:14;100411.40;;;17.40
66372;BMP180;53168;51.146;17.120;2022-10-16T07:41:42;100408.00;;;17.40
66372;BMP180;53168;51.146;17.120;2022-10-16T07:44:11;100400.80;;;17.50
66372;BMP180;53168;51.146;17.120;2022-10-16T07:46:39;100403.60;;;17.50
66372;BMP180;53168;51.146;17.120;2022-10-16T07:49:09;100403.00;;;17.58
66372;BMP180;53168;51.146;17.120;2022-10-16T07:51:38;100400.00;;;17.60
66372;BMP180;53168;51.146;17.120;2022-10-16T07:54:08;100398.20;;;17.62
66372;BMP180;53168;51.146;17.120;2022-10-16T07:56:36;100392.40;;;17.70
66372;BMP180;53168;51.146;17.120;2022-10-16T07:59:10;100393.20;;;17.78
66372;BMP180;53168;51.146;17.120;2022-10-16T08:01:39;100399.60;;;17.80
66372;BMP180;53168;51.146;17.120;2022-10-16T08:04:07;100400.40;;;17.92
66372;BMP180;53168;51.146;17.120;2022-10-16T08:06:37;100403.20;;;18.18
66372;BMP180;53168;51.146;17.120;2022-10-16T08:09:07;100406.00;;;18.38
66372;BMP180;53168;51.146;17.120;2022-10-16T08:11:35;100397.60;;;18.58
66372;BMP180;53168;51.146;17.120;2022-10-16T08:14:04;100405.40;;;18.70
66372;BMP180;53168;51.146;17.120;2022-10-16T08:33:44;100427.60;;;19.66
66372;BMP180;53168;51.146;17.120;2022-10-16T08:36:17;100427.00;;;19.70
66372;BMP180;53168;51.146;17.120;2022-10-16T08:38:50;100430.60;;;19.62
66372;BMP180;53168;51.146;17.120;2022-10-16T08:41:56;100432.60;;;19.60
66372;BMP180;53168;51.146;17.120;2022-10-16T08:44:49;100436.00;;;19.60
66372;BMP180;53168;51.146;17.120;2022-10-16T08:47:39;100439.40;;;19.60
66372;BMP180;53168;51.146;17.120;2022-10-16T08:50:14;100442.00;;;19.60
66372;BMP180;53168;51.146;17.120;2022-10-16T08:52:49;100442.40;;;19.70
66372;BMP180;53168;51.146;17.120;2022-10-16T08:55:33;100448.40;;;19.70
66372;BMP180;53168;51.146;17.120;2022-10-16T08:58:14;100448.60;;;19.80
66372;BMP180;53168;51.146;17.120;2022-10-16T09:00:49;100451.40;;;19.84
66372;BMP180;53168;51.146;17.120;2022-10-16T09:03:40;100456.00;;;19.90
66372;BMP180;53168;51.146;17.120;2022-10-16T09:06:24;100458.20;;;20.10
66372;BMP180;53168;51.146;17.120;2022-10-16T09:09:08;100457.80;;;20.20
66372;BMP180;53168;51.146;17.120;2022-10-16T09:11:48;100458.00;;;20.38
66372;BMP180;53168;51.146;17.120;2022-10-16T09:14:50;100457.00;;;20.50
66372;BMP180;53168;51.146;17.120;2022-10-16T09:17:32;100465.60;;;20.60
66372;BMP180;53168;51.146;17.120;2022-10-16T09:20:18;100466.40;;;20.70
66372;BMP180;53168;51.146;17.120;2022-10-16T09:22:55;100465.40;;;20.90
66372;BMP180;53168;51.146;17.120;2022-10-16T09:25:37;100467.60;;;21.00
66372;BMP180;53168;51.146;17.120;2022-10-16T09:28:15;100463.60;;;21.20
66372;BMP180;53168;51.146;17.120;2022-10-16T09:30:56;100461.40;;;21.30
66372;BMP180;53168;51.146;17.120;2022-10-16T09:33:33;100466.40;;;21.40
66372;BMP180;53168;51.146;17.120;2022-10-16T09:36:10;100468.40;;;21.50
66372;BMP180;53168;51.146;17.120;2022-10-16T09:39:10;100473.40;;;21.52
66372;BMP180;53168;51.146;17.120;2022-10-16T09:41:45;100475.20;;;21.60
66372;BMP180;53168;51.146;17.120;2022-10-16T09:44:26;100475.20;;;21.76
66372;BMP180;53168;51.146;17.120;2022-10-16T09:47:22;100468.40;;;21.90
66372;BMP180;53168;51.146;17.120;2022-10-16T09:50:19;100471.80;;;22.10
66372;BMP180;53168;51.146;17.120;2022-10-16T09:53:20;100470.80;;;22.30
66372;BMP180;53168;51.146;17.120;2022-10-16T09:55:54;100463.20;;;22.60
66372;BMP180;53168;51.146;17.120;2022-10-16T09:58:28;100464.00;;;22.80
66372;BMP180;53168;51.146;17.120;2022-10-16T10:01:01;100470.40;;;22.80
66372;BMP180;53168;51.146;17.120;2022-10-16T10:03:39;100469.00;;;22.80
66372;BMP180;53168;51.146;17.120;2022-10-16T10:06:20;100467.20;;;22.82
66372;BMP180;53168;51.146;17.120;2022-10-16T10:08:59;100469.00;;;22.96
66372;BMP180;53168;51.146;17.120;2022-10-16T10:11:50;100460.00;;;23.10
66372;BMP180;53168;51.146;17.120;2022-10-16T10:14:24;100459.00;;;23.40
66372;BMP180;53168;51.146;17.120;2022-10-16T10:17:11;100457.60;;;23.60
66372;BMP180;53168;51.146;17.120;2022-10-16T10:19:47;100457.00;;;23.70
66372;BMP180;53168;51.146;17.120;2022-10-16T10:22:24;100457.40;;;23.90
66372;BMP180;53168;51.146;17.120;2022-10-16T10:25:07;100461.20;;;24.00
66372;BMP180;53168;51.146;17.120;2022-10-16T10:27:58;100469.60;;;24.12
66372;BMP180;53168;51.146;17.120;2022-10-16T10:30:42;100469.40;;;24.20
66372;BMP180;53168;51.146;17.120;2022-10-16T10:33:48;100472.20;;;24.10
66372;BMP180;53168;51.146;17.120;2022-10-16T10:37:09;100468.60;;;24.10
66372;BMP180;53168;51.146;17.120;2022-10-16T10:46:54;100474.00;;;24.20
66372;BMP180;53168;51.146;17.120;2022-10-16T10:49:39;100472.20;;;24.30
66372;BMP180;53168;51.146;17.120;2022-10-16T10:52:47;100469.20;;;24.40
66372;BMP180;53168;51.146;17.120;2022-10-16T10:55:43;100462.00;;;24.40
66372;BMP180;53168;51.146;17.120;2022-10-16T11:01:26;100465.00;;;24.60
66372;BMP180;53168;51.146;17.120;2022-10-16T11:04:38;100462.20;;;24.56
66372;BMP180;53168;51.146;17.120;2022-10-16T11:07:18;100468.40;;;24.40
66372;BMP180;53168;51.146;17.120;2022-10-16T11:09:55;100470.60;;;24.40
66372;BMP180;53168;51.146;17.120;2022-10-16T11:12:35;100467.20;;;24.32
66372;BMP180;53168;51.146;17.120;2022-10-16T11:15:18;100463.40;;;24.30
66372;BMP180;53168;51.146;17.120;2022-10-16T11:17:53;100458.20;;;24.40
66372;BMP180;53168;51.146;17.120;2022-10-16T11:20:29;100453.40;;;24.56
66372;BMP180;53168;51.146;17.120;2022-10-16T11:23:10;100450.40;;;24.60
66372;BMP180;53168;51.146;17.120;2022-10-16T11:25:44;100448.20;;;24.80
66372;BMP180;53168;51.146;17.120;2022-10-16T11:28:27;100442.60;;;24.90
66372;BMP180;53168;51.146;17.120;2022-10-16T11:31:05;100446.20;;;25.06
66372;BMP180;53168;51.146;17.120;2022-10-16T11:33:42;100443.40;;;25.12
66372;BMP180;53168;51.146;17.120;2022-10-16T11:36:21;100440.40;;;25.20
66372;BMP180;53168;51.146;17.120;2022-10-16T11:38:58;100438.40;;;25.30
66372;BMP180;53168;51.146;17.120;2022-10-16T11:41:35;100439.80;;;25.54
66372;BMP180;53168;51.146;17.120;2022-10-16T11:44:27;100431.00;;;25.92
66372;BMP180;53168;51.146;17.120;2022-10-16T11:47:27;100332.00;;;28.58
66372;BMP180;53168;51.146;17.120;2022-10-16T11:50:31;100396.40;;;30.58
66372;BMP180;53168;51.146;17.120;2022-10-16T11:53:18;100385.80;;;30.78
66372;BMP180;53168;51.146;17.120;2022-10-16T11:56:02;100427.80;;;30.50
66372;BMP180;53168;51.146;17.120;2022-10-16T11:58:41;100437.40;;;30.40
66372;BMP180;53168;51.146;17.120;2022-10-16T12:01:21;100438.40;;;29.80
66372;BMP180;53168;51.146;17.120;2022-10-16T12:04:02;100458.60;;;29.08
66372;BMP180;53168;51.146;17.120;2022-10-16T12:06:40;100468.40;;;28.34
66372;BMP180;53168;51.146;17.120;2022-10-16T12:09:19;100470.00;;;27.64
66372;BMP180;53168;51.146;17.120;2022-10-16T12:11:53;100472.80;;;27.00
66372;BMP180;53168;51.146;17.120;2022-10-16T12:14:39;100466.60;;;26.48
66372;BMP180;53168;51.146;17.120;2022-10-16T12:17:42;100463.60;;;25.98
66372;BMP180;53168;51.146;17.120;2022-10-16T12:20:32;100480.20;;;25.70
66372;BMP180;53168;51.146;17.120;2022-10-16T12:23:07;100480.40;;;25.40
66372;BMP180;53168;51.146;17.120;2022-10-16T12:25:56;100495.00;;;25.10
66372;BMP180;53168;51.146;17.120;2022-10-16T12:28:30;100498.80;;;24.82
66372;BMP180;53168;51.146;17.120;2022-10-16T12:31:04;100507.40;;;24.60
66372;BMP180;53168;51.146;17.120;2022-10-16T12:33:40;100507.20;;;24.30
66372;BMP180;53168;51.146;17.120;2022-10-16T12:36:16;100507.00;;;24.10
66372;BMP180;53168;51.146;17.120;2022-10-16T12:39:00;100506.20;;;23.90
66372;BMP180;53168;51.146;17.120;2022-10-16T12:41:34;100509.00;;;23.80
66372;BMP180;53168;51.146;17.120;2022-10-16T12:44:23;100508.80;;;23.70
66372;BMP180;53168;51.146;17.120;2022-10-16T12:46:56;100504.60;;;23.70
66372;BMP180;53168;51.146;17.120;2022-10-16T12:49:35;100513.80;;;23.80
66372;BMP180;53168;51.146;17.120;2022-10-16T12:52:25;100515.60;;;23.88
66372;BMP180;53168;51.146;17.120;2022-10-16T12:54:59;100503.40;;;24.22
66372;BMP180;53168;51.146;17.120;2022-10-16T12:57:41;100481.80;;;26.40
66372;BMP180;53168;51.146;17.120;2022-10-16T13:00:22;100522.40;;;28.60
66372;BMP180;53168;51.146;17.120;2022-10-16T13:03:32;100526.20;;;28.40
66372;BMP180;53168;51.146;17.120;2022-10-16T13:06:17;100525.60;;;27.80
66372;BMP180;53168;51.146;17.120;2022-10-16T13:09:07;100529.40;;;27.70
66372;BMP180;53168;51.146;17.120;2022-10-16T13:12:01;100535.00;;;27.26
66372;BMP180;53168;51.146;17.120;2022-10-16T13:15:00;100535.60;;;26.72
66372;BMP180;53168;51.146;17.120;2022-10-16T13:17:39;100530.20;;;26.40
66372;BMP180;53168;51.146;17.120;2022-10-16T13:20:19;100531.40;;;26.10
66372;BMP180;53168;51.146;17.120;2022-10-16T13:22:59;100535.20;;;25.80
66372;BMP180;53168;51.146;17.120;2022-10-16T13:25:42;100534.00;;;25.60
66372;BMP180;53168;51.146;17.120;2022-10-16T13:28:17;100534.20;;;25.56
66372;BMP180;53168;51.146;17.120;2022-10-16T13:30:54;100542.20;;;25.60
66372;BMP180;53168;51.146;17.120;2022-10-16T13:33:32;100540.20;;;25.80
66372;BMP180;53168;51.146;17.120;2022-10-16T13:36:06;100543.40;;;26.00
66372;BMP180;53168;51.146;17.120;2022-10-16T13:38:38;100538.00;;;26.16
66372;BMP180;53168;51.146;17.120;2022-10-16T13:41:16;100543.20;;;26.58
66372;BMP180;53168;51.146;17.120;2022-10-16T13:43:51;100546.60;;;26.80
66372;BMP180;53168;51.146;17.120;2022-10-16T13:46:25;100547.00;;;26.70
66372;BMP180;53168;51.146;17.120;2022-10-16T13:49:03;100542.80;;;26.70
66372;BMP180;53168;51.146;17.120;2022-10-16T13:51:36;100527.40;;;27.10
66372;BMP180;53168;51.146;17.120;2022-10-16T13:54:10;100527.00;;;29.30
66372;BMP180;53168;51.146;17.120;2022-10-16T13:56:47;100522.40;;;30.86
66372;BMP180;53168;51.146;17.120;2022-10-16T13:59:38;100522.80;;;32.80
66372;BMP180;53168;51.146;17.120;2022-10-16T14:02:22;100527.60;;;34.78
66372;BMP180;53168;51.146;17.120;2022-10-16T14:04:58;100564.40;;;35.74
66372;BMP180;53168;51.146;17.120;2022-10-16T14:07:32;100568.20;;;34.46
66372;BMP180;53168;51.146;17.120;2022-10-16T14:10:17;100565.80;;;34.46
66372;BMP180;53168;51.146;17.120;2022-10-16T14:12:58;100560.60;;;34.68
66372;BMP180;53168;51.146;17.120;2022-10-16T14:15:31;100569.00;;;34.80
66372;BMP180;53168;51.146;17.120;2022-10-16T14:18:04;100551.20;;;35.20
66372;BMP180;53168;51.146;17.120;2022-10-16T14:23:45;100575.40;;;35.60
66372;BMP180;53168;51.146;17.120;2022-10-16T14:26:42;100571.40;;;35.60
66372;BMP180;53168;51.146;17.120;2022-10-16T14:29:21;100590.60;;;35.32
66372;BMP180;53168;51.146;17.120;2022-10-16T14:32:02;100597.60;;;33.98
66372;BMP180;53168;51.146;17.120;2022-10-16T14:34:54;100591.60;;;32.84
66372;BMP180;53168;51.146;17.120;2022-10-16T14:37:29;100594.20;;;31.90
66372;BMP180;53168;51.146;17.120;2022-10-16T14:40:03;100582.00;;;31.10
66372;BMP180;53168;51.146;17.120;2022-10-16T14:42:36;100581.80;;;31.58
66372;BMP180;53168;51.146;17.120;2022-10-16T14:45:10;100591.80;;;31.22
66372;BMP180;53168;51.146;17.120;2022-10-16T14:47:50;100599.80;;;30.36
66372;BMP180;53168;51.146;17.120;2022-10-16T14:50:25;100606.60;;;29.46
66372;BMP180;53168;51.146;17.120;2022-10-16T14:52:57;100607.60;;;28.64
66372;BMP180;53168;51.146;17.120;2022-10-16T14:55:30;100606.00;;;27.98
66372;BMP180;53168;51.146;17.120;2022-10-16T14:58:02;100603.00;;;27.44
66372;BMP180;53168;51.146;17.120;2022-10-16T15:00:34;100605.00;;;27.02
66372;BMP180;53168;51.146;17.120;2022-10-16T15:03:08;100610.80;;;26.70
66372;BMP180;53168;51.146;17.120;2022-10-16T15:05:40;100613.00;;;26.36
66372;BMP180;53168;51.146;17.120;2022-10-16T15:08:12;100614.20;;;26.10
66372;BMP180;53168;51.146;17.120;2022-10-16T15:10:44;100612.80;;;25.80
66372;BMP180;53168;51.146;17.120;2022-10-16T15:13:16;100614.00;;;25.48
66372;BMP180;53168;51.146;17.120;2022-10-16T15:15:48;100617.20;;;25.20
66372;BMP180;53168;51.146;17.120;2022-10-16T15:18:24;100617.80;;;24.92
66372;BMP180;53168;51.146;17.120;2022-10-16T15:20:56;100619.80;;;24.68
66372;BMP180;53168;51.146;17.120;2022-10-16T15:23:31;100619.60;;;24.40
66372;BMP180;53168;51.146;17.120;2022-10-16T15:26:08;100624.40;;;24.26
66372;BMP180;53168;51.146;17.120;2022-10-16T15:28:41;100625.00;;;24.10
66372;BMP180;53168;51.146;17.120;2022-10-16T15:31:14;100633.20;;;23.86
66372;BMP180;53168;51.146;17.120;2022-10-16T15:33:48;100626.40;;;23.60
66372;BMP180;53168;51.146;17.120;2022-10-16T15:36:28;100621.40;;;23.36
66372;BMP180;53168;51.146;17.120;2022-10-16T15:39:01;100619.20;;;23.10
66372;BMP180;53168;51.146;17.120;2022-10-16T15:41:33;100623.20;;;22.80
66372;BMP180;53168;51.146;17.120;2022-10-16T15:44:04;100624.60;;;22.56
66372;BMP180;53168;51.146;17.120;2022-10-16T15:46:37;100627.80;;;22.30
66372;BMP180;53168;51.146;17.120;2022-10-16T15:49:09;100630.00;;;22.10
66372;BMP180;53168;51.146;17.120;2022-10-16T15:51:43;100633.40;;;21.90
66372;BMP180;53168;51.146;17.120;2022-10-16T15:54:14;100637.60;;;21.70
66372;BMP180;53168;51.146;17.120;2022-10-16T15:56:46;100634.60;;;21.50
66372;BMP180;53168;51.146;17.120;2022-10-16T15:59:18;100642.80;;;21.40
66372;BMP180;53168;51.146;17.120;2022-10-16T16:01:50;100649.80;;;21.20
66372;BMP180;53168;51.146;17.120;2022-10-16T16:04:22;100656.20;;;21.10
66372;BMP180;53168;51.146;17.120;2022-10-16T16:07:13;100656.00;;;21.00
66372;BMP180;53168;51.146;17.120;2022-10-16T16:09:45;100653.40;;;20.90
66372;BMP180;53168;51.146;17.120;2022-10-16T16:12:18;100655.80;;;20.80
66372;BMP180;53168;51.146;17.120;2022-10-16T16:14:50;100664.20;;;20.80
66372;BMP180;53168;51.146;17.120;2022-10-16T16:17:22;100667.20;;;20.80
66372;BMP180;53168;51.146;17.120;2022-10-16T16:19:56;100670.00;;;20.80
66372;BMP180;53168;51.146;17.120;2022-10-16T16:22:28;100673.40;;;20.80
66372;BMP180;53168;51.146;17.120;2022-10-16T16:25:01;100677.20;;;20.78
66372;BMP180;53168;51.146;17.120;2022-10-16T16:27:40;100681.20;;;20.70
66372;BMP180;53168;51.146;17.120;2022-10-16T16:30:20;100685.80;;;20.70
66372;BMP180;53168;51.146;17.120;2022-10-16T16:32:58;100684.60;;;20.60
66372;BMP180;53168;51.146;17.120;2022-10-16T16:35:31;100688.40;;;20.60
66372;BMP180;53168;51.146;17.120;2022-10-16T16:38:03;100690.60;;;20.50
66372;BMP180;53168;51.146;17.120;2022-10-16T16:40:50;100689.60;;;20.40
66372;BMP180;53168;51.146;17.120;2022-10-16T16:43:27;100690.60;;;20.26
66372;BMP180;53168;51.146;17.120;2022-10-16T16:46:02;100699.60;;;20.10
66372;BMP180;53168;51.146;17.120;2022-10-16T16:48:34;100706.40;;;20.00
66372;BMP180;53168;51.146;17.120;2022-10-16T16:51:07;100709.20;;;19.86
66372;BMP180;53168;51.146;17.120;2022-10-16T16:53:41;100715.80;;;19.70
66372;BMP180;53168;51.146;17.120;2022-10-16T16:56:14;100721.60;;;19.60
66372;BMP180;53168;51.146;17.120;2022-10-16T16:58:48;100725.00;;;19.50
66372;BMP180;53168;51.146;17.120;2022-10-16T17:01:32;100719.40;;;19.32
66372;BMP180;53168;51.146;17.120;2022-10-16T17:04:05;100722.20;;;19.30
66372;BMP180;53168;51.146;17.120;2022-10-16T17:06:37;100721.40;;;19.22
66372;BMP180;53168;51.146;17.120;2022-10-16T17:09:12;100729.40;;;19.20
66372;BMP180;53168;51.146;17.120;2022-10-16T17:11:46;100729.00;;;19.10
66372;BMP180;53168;51.146;17.120;2022-10-16T17:14:19;100738.80;;;19.04
66372;BMP180;53168;51.146;17.120;2022-10-16T17:16:53;100742.40;;;19.00
66372;BMP180;53168;51.146;17.120;2022-10-16T17:19:25;100748.80;;;19.00
66372;BMP180;53168;51.146;17.120;2022-10-16T17:21:57;100755.40;;;18.92
66372;BMP180;53168;51.146;17.120;2022-10-16T17:24:31;100757.40;;;18.90
66372;BMP180;53168;51.146;17.120;2022-10-16T17:27:04;100757.00;;;18.90
66372;BMP180;53168;51.146;17.120;2022-10-16T17:29:36;100761.00;;;18.90
66372;BMP180;53168;51.146;17.120;2022-10-16T17:32:09;100766.40;;;18.90
66372;BMP180;53168;51.146;17.120;2022-10-16T17:34:41;100770.20;;;18.82
66372;BMP180;53168;51.146;17.120;2022-10-16T17:37:16;100768.60;;;18.80
66372;BMP180;53168;51.146;17.120;2022-10-16T17:39:52;100773.80;;;18.70
66372;BMP180;53168;51.146;17.120;2022-10-16T17:42:30;100777.40;;;18.68
66372;BMP180;53168;51.146;17.120;2022-10-16T17:50:42;100783.40;;;18.50
66372;BMP180;53168;51.146;17.120;2022-10-16T17:53:17;100784.40;;;18.40
66372;BMP180;53168;51.146;17.120;2022-10-16T17:55:49;100790.80;;;18.30
66372;BMP180;53168;51.146;17.120;2022-10-16T17:58:26;100793.20;;;18.30
66372;BMP180;53168;51.146;17.120;2022-10-16T18:00:58;100789.80;;;18.20
66372;BMP180;53168;51.146;17.120;2022-10-16T18:03:34;100788.60;;;18.20
66372;BMP180;53168;51.146;17.120;2022-10-16T18:06:07;100792.80;;;18.10
66372;BMP180;53168;51.146;17.120;2022-10-16T18:08:43;100793.60;;;18.10
66372;BMP180;53168;51.146;17.120;2022-10-16T18:11:17;100794.40;;;18.06
66372;BMP180;53168;51.146;17.120;2022-10-16T18:13:52;100794.60;;;18.00
66372;BMP180;53168;51.146;17.120;2022-10-16T18:16:30;100797.60;;;18.00
66372;BMP180;53168;51.146;17.120;2022-10-16T18:19:08;100801.60;;;18.00
66372;BMP180;53168;51.146;17.120;2022-10-16T18:21:43;100799.40;;;18.10
66372;BMP180;53168;51.146;17.120;2022-10-16T18:24:24;100803.60;;;18.10
66372;BMP180;53168;51.146;17.120;2022-10-16T18:26:56;100803.80;;;18.10
66372;BMP180;53168;51.146;17.120;2022-10-16T18:29:28;100803.40;;;18.10
66372;BMP180;53168;51.146;17.120;2022-10-16T18:32:00;100806.20;;;18.10
66372;BMP180;53168;51.146;17.120;2022-10-16T18:34:41;100808.00;;;18.20
66372;BMP180;53168;51.146;17.120;2022-10-16T18:37:16;100814.20;;;18.30
66372;BMP180;53168;51.146;17.120;2022-10-16T18:42:45;100828.60;;;18.30
66372;BMP180;53168;51.146;17.120;2022-10-16T18:45:20;100824.40;;;18.30
66372;BMP180;53168;51.146;17.120;2022-10-16T18:47:53;100829.80;;;18.20
66372;BMP180;53168;51.146;17.120;2022-10-16T18:50:29;100828.20;;;18.06
66372;BMP180;53168;51.146;17.120;2022-10-16T18:53:03;100831.40;;;17.90
66372;BMP180;53168;51.146;17.120;2022-10-16T18:55:35;100835.60;;;17.80
66372;BMP180;53168;51.146;17.120;2022-10-16T18:58:07;100833.60;;;17.72
66372;BMP180;53168;51.146;17.120;2022-10-16T19:00:39;100844.00;;;17.70
66372;BMP180;53168;51.146;17.120;2022-10-16T19:03:13;100847.20;;;17.60
66372;BMP180;53168;51.146;17.120;2022-10-16T19:08:38;100850.40;;;17.60
66372;BMP180;53168;51.146;17.120;2022-10-16T19:11:12;100861.40;;;17.70
66372;BMP180;53168;51.146;17.120;2022-10-16T19:13:45;100862.80;;;17.70